createdAt,value
2022-12-29T00:01:48.132Z,2.00
2022-12-29T00:06:52.737Z,2.10
2022-12-29T00:11:55.872Z,2.15
2022-12-29T00:16:59.215Z,2.13
2022-12-29T00:22:21.175Z,2.08
2022-12-29T00:27:41.713Z,2.08
2022-12-29T00:33:02.213Z,2.42
2022-12-29T00:38:27.659Z,2.20
2022-12-29T00:43:48.403Z,2.03
2022-12-29T00:49:08.875Z,2.08
2022-12-29T00:54:14.183Z,2.50
2022-12-29T00:59:17.986Z,1.80
2022-12-29T01:04:22.272Z,1.98
2022-12-29T01:09:44.763Z,2.20
2022-12-29T01:14:47.959Z,2.15
2022-12-29T01:19:51.202Z,1.38
2022-12-29T01:24:55.856Z,2.05
2022-12-29T01:29:59.247Z,2.15
2022-12-29T01:35:02.621Z,2.00
2022-12-29T01:40:08.697Z,2.10
2022-12-29T01:45:14.276Z,2.17
2022-12-29T01:50:22.551Z,1.90
2022-12-29T01:55:29.365Z,1.52
2022-12-29T02:00:32.681Z,1.80
2022-12-29T02:05:40.876Z,2.03
2022-12-29T02:10:46.693Z,2.60
2022-12-29T02:15:59.344Z,2.00
2022-12-29T02:21:46.971Z,2.33
2022-12-29T02:27:31.442Z,2.30
2022-12-29T02:37:46.847Z,1.92
2022-12-29T02:42:53.317Z,2.45
2022-12-29T02:48:06.969Z,2.40
2022-12-29T02:53:15.211Z,3.70
2022-12-29T02:58:21.570Z,2.95
2022-12-29T03:03:40.582Z,2.67
2022-12-29T03:08:52.158Z,2.92
2022-12-29T03:14:19.978Z,2.97
2022-12-29T03:19:31.541Z,2.35
2022-12-29T03:24:40.134Z,3.33
2022-12-29T03:29:53.438Z,3.22
2022-12-29T03:34:58.919Z,2.28
2022-12-29T03:40:02.295Z,2.70
2022-12-29T03:45:08.714Z,3.10
2022-12-29T03:50:15.775Z,3.00
2022-12-29T03:55:19.111Z,3.38
2022-12-29T04:00:22.557Z,3.00
2022-12-29T04:05:27.180Z,3.53
2022-12-29T04:10:30.411Z,2.95
2022-12-29T04:15:33.695Z,4.38
2022-12-29T04:20:55.795Z,3.58
2022-12-29T04:25:59.005Z,3.33
2022-12-29T04:31:02.390Z,4.13
2022-12-29T04:36:07.753Z,3.78
2022-12-29T04:41:12.280Z,3.70
2022-12-29T04:46:15.632Z,3.72
2022-12-29T04:51:20.295Z,4.28
2022-12-29T04:56:23.520Z,4.95
2022-12-29T05:01:26.848Z,5.07
2022-12-29T05:06:31.770Z,6.63
2022-12-29T05:11:35.009Z,4.40
2022-12-29T05:16:38.325Z,4.95
2022-12-29T05:21:42.961Z,5.07
2022-12-29T05:26:46.179Z,5.25
2022-12-29T05:31:49.473Z,4.60
2022-12-29T05:36:54.292Z,5.30
2022-12-29T05:41:57.670Z,5.45
2022-12-29T05:47:00.970Z,4.97
2022-12-29T05:52:05.999Z,4.25
2022-12-29T05:57:09.414Z,5.05
2022-12-29T06:02:13.203Z,4.20
2022-12-29T06:07:18.814Z,4.20
2022-12-29T06:12:22.040Z,4.03
2022-12-29T06:17:25.745Z,4.13
2022-12-29T06:22:30.310Z,3.75
2022-12-29T06:27:33.883Z,3.28
2022-12-29T06:32:37.430Z,4.65
2022-12-29T06:37:42.318Z,3.88
2022-12-29T06:42:45.681Z,3.17
2022-12-29T06:47:49.099Z,3.80
2022-12-29T06:52:53.859Z,3.95
2022-12-29T06:57:57.656Z,4.53
2022-12-29T07:03:01.134Z,4.32
2022-12-29T07:08:06.831Z,4.88
2022-12-29T07:13:10.656Z,3.40
2022-12-29T07:18:13.873Z,4.93
2022-12-29T07:23:18.832Z,3.80
2022-12-29T07:28:22.172Z,4.03
2022-12-29T07:33:25.495Z,3.42
2022-12-29T07:38:30.104Z,3.88
2022-12-29T07:43:33.343Z,3.30
2022-12-29T07:48:37.147Z,2.50
2022-12-29T07:53:41.818Z,3.47
2022-12-29T07:58:45.618Z,2.78
2022-12-29T08:03:54.014Z,3.10
2022-12-29T08:09:11.153Z,2.88
2022-12-29T08:14:16.934Z,2.67
2022-12-29T08:19:20.172Z,2.92
2022-12-29T08:24:24.964Z,2.10
2022-12-29T08:29:28.155Z,2.17
2022-12-29T08:34:32.810Z,2.35
2022-12-29T08:39:37.520Z,2.65
2022-12-29T08:44:41.872Z,2.33
2022-12-29T08:49:45.084Z,2.50
2022-12-29T08:54:49.670Z,2.55
2022-12-29T08:59:53.330Z,2.75
2022-12-29T09:04:58.422Z,3.20
2022-12-29T09:10:03.239Z,3.15
2022-12-29T09:15:08.081Z,2.88
2022-12-29T09:20:12.209Z,4.90
2022-12-29T09:25:17.115Z,3.50
2022-12-29T09:30:21.161Z,4.32
2022-12-29T09:35:24.451Z,4.82
2022-12-29T09:40:32.858Z,4.07
2022-12-29T09:45:42.353Z,4.47
2022-12-29T09:50:49.351Z,4.63
2022-12-29T09:55:57.043Z,5.70
2022-12-29T10:01:05.187Z,5.57
2022-12-29T10:06:13.761Z,7.32
2022-12-29T10:11:33.365Z,6.97
2022-12-29T10:16:44.798Z,6.68
2022-12-29T10:22:01.830Z,7.60
2022-12-29T10:27:12.649Z,8.40
2022-12-29T10:32:27.460Z,8.10
2022-12-29T10:37:40.628Z,8.98
2022-12-29T10:42:53.109Z,9.40
2022-12-29T10:48:02.453Z,9.13
2022-12-29T10:53:08.009Z,9.15
2022-12-29T10:58:15.931Z,9.25
2022-12-29T11:03:43.355Z,8.98
2022-12-29T11:08:53.271Z,8.35
2022-12-29T11:14:05.063Z,8.00
2022-12-29T11:19:08.295Z,9.00
2022-12-29T11:24:23.502Z,8.50
2022-12-29T11:29:30.352Z,7.57
2022-12-29T11:34:35.558Z,8.13
2022-12-29T11:39:43.493Z,8.20
2022-12-29T11:44:50.057Z,9.88
2022-12-29T11:49:56.534Z,12.45
2022-12-29T11:55:01.196Z,10.07
2022-12-29T12:00:18.243Z,9.75
2022-12-29T12:05:32.941Z,10.48
2022-12-29T12:10:43.928Z,37.00
2022-12-29T12:15:56.633Z,12.30
2022-12-29T12:21:08.159Z,10.77
2022-12-29T12:26:15.321Z,14.95
2022-12-29T12:31:28.871Z,18.33
2022-12-29T12:36:56.408Z,9.90
2022-12-29T12:42:15.043Z,16.33
2022-12-29T12:47:42.567Z,16.13
2022-12-29T12:53:04.213Z,15.43
2022-12-29T12:58:18.119Z,16.15
2022-12-29T13:03:31.791Z,13.70
2022-12-29T13:09:05.727Z,17.10
2022-12-29T13:14:18.677Z,13.93
2022-12-29T13:19:36.807Z,13.27
2022-12-29T13:24:53.257Z,11.50
2022-12-29T13:30:04.538Z,10.63
2022-12-29T13:35:23.978Z,11.35
2022-12-29T13:40:31.643Z,10.13
2022-12-29T13:45:37.246Z,11.07
2022-12-29T13:50:42.990Z,9.65
2022-12-29T13:55:54.031Z,10.90
2022-12-29T14:01:03.297Z,10.73
2022-12-29T14:06:19.086Z,9.85
2022-12-29T14:11:26.801Z,10.00
2022-12-29T14:16:33.673Z,9.88
2022-12-29T14:21:38.981Z,10.38
2022-12-29T14:26:42.413Z,10.68
2022-12-29T14:31:45.734Z,12.10
2022-12-29T14:36:57.955Z,12.27
2022-12-29T14:42:07.392Z,12.20
2022-12-29T14:47:11.129Z,10.27
2022-12-29T14:52:22.460Z,13.23
2022-12-29T14:57:32.372Z,15.15
2022-12-29T15:02:40.870Z,11.32
2022-12-29T15:07:45.578Z,10.85
2022-12-29T15:12:54.490Z,10.77
2022-12-29T15:17:58.173Z,10.25
2022-12-29T15:28:24.550Z,11.13
2022-12-29T15:33:29.759Z,10.93
2022-12-29T15:38:40.222Z,11.60
2022-12-29T15:43:53.599Z,12.00
2022-12-29T15:48:56.964Z,12.60
2022-12-29T15:54:01.763Z,11.57
2022-12-29T15:59:05.152Z,11.18
2022-12-29T16:04:11.234Z,11.35
2022-12-29T16:09:21.539Z,11.93
2022-12-29T16:14:32.297Z,11.65
2022-12-29T16:19:39.568Z,11.50
2022-12-29T16:24:44.278Z,12.30
2022-12-29T16:29:48.587Z,11.25
2022-12-29T16:34:55.329Z,11.73
2022-12-29T16:40:27.228Z,10.63
2022-12-29T16:46:04.103Z,11.18
2022-12-29T16:51:16.169Z,10.05
2022-12-29T16:56:26.615Z,11.23
2022-12-29T17:01:30.710Z,10.95
2022-12-29T17:06:34.125Z,12.35
2022-12-29T17:12:01.625Z,13.60
2022-12-29T17:17:11.356Z,13.40
2022-12-29T17:22:18.411Z,11.32
2022-12-29T17:27:30.792Z,11.80
2022-12-29T17:32:34.882Z,10.20
2022-12-29T17:37:39.229Z,10.90
2022-12-29T17:42:46.464Z,10.95
2022-12-29T17:47:50.300Z,13.65
2022-12-29T17:53:00.636Z,12.00
2022-12-29T17:58:18.027Z,12.63
2022-12-29T18:03:24.968Z,12.75
2022-12-29T18:08:32.308Z,11.82
2022-12-29T18:13:45.787Z,12.70
2022-12-29T18:18:49.807Z,13.25
2022-12-29T18:23:53.182Z,13.27
2022-12-29T18:28:58.302Z,13.25
2022-12-29T18:34:03.543Z,12.32
2022-12-29T18:39:06.964Z,12.27
2022-12-29T18:44:14.953Z,12.90
2022-12-29T18:49:18.443Z,13.73
2022-12-29T18:54:29.155Z,13.45
2022-12-29T18:59:34.231Z,12.70
2022-12-29T19:04:37.641Z,12.50
2022-12-29T19:09:40.920Z,13.40
2022-12-29T19:14:45.632Z,12.93
2022-12-29T19:19:48.970Z,12.85
2022-12-29T19:24:58.020Z,11.98
2022-12-29T19:30:04.961Z,12.10
2022-12-29T19:35:09.479Z,12.70
2022-12-29T19:40:16.594Z,13.52
2022-12-29T19:45:21.697Z,13.48
2022-12-29T19:50:25.102Z,13.40
2022-12-29T19:55:30.277Z,11.98
2022-12-29T20:00:35.070Z,12.98
2022-12-29T20:05:38.762Z,12.75
2022-12-29T20:10:42.019Z,12.48
2022-12-29T20:15:46.648Z,14.52
2022-12-29T20:20:50.132Z,14.38
2022-12-29T20:25:57.646Z,16.98
2022-12-29T20:31:04.923Z,14.25
2022-12-29T20:36:10.638Z,13.32
2022-12-29T20:41:14.718Z,14.30
2022-12-29T20:46:21.929Z,15.15
2022-12-29T20:51:27.732Z,14.60
2022-12-29T20:56:31.994Z,14.57
2022-12-29T21:01:37.199Z,14.35
2022-12-29T21:06:40.515Z,14.27
2022-12-29T21:11:43.753Z,14.68
2022-12-29T21:16:48.656Z,15.00
2022-12-29T21:21:52.031Z,14.68
2022-12-29T21:26:55.348Z,15.75
2022-12-29T21:32:06.476Z,15.73
2022-12-29T21:37:10.592Z,15.68
2022-12-29T21:42:13.753Z,14.85
2022-12-29T21:47:18.661Z,17.48
2022-12-29T21:52:22.285Z,16.67
2022-12-29T21:57:42.779Z,18.25
2022-12-29T22:03:05.057Z,17.70
2022-12-29T22:08:25.457Z,17.70
2022-12-29T22:13:29.203Z,17.83
2022-12-29T22:18:34.083Z,18.45
2022-12-29T22:23:38.703Z,19.33
2022-12-29T22:28:44.343Z,18.60
2022-12-29T22:33:49.262Z,18.40
2022-12-29T22:38:52.856Z,20.13
2022-12-29T22:43:56.753Z,24.02
2022-12-29T22:49:01.789Z,30.52
2022-12-29T22:54:05.071Z,17.48
2022-12-29T22:59:08.654Z,17.60
2022-12-29T23:04:59.229Z,19.70
2022-12-29T23:09:37.126Z,19.48
2022-12-29T23:14:40.563Z,19.23
2022-12-29T23:19:45.369Z,18.85
2022-12-29T23:24:48.785Z,18.60
2022-12-29T23:29:52.282Z,19.42
2022-12-29T23:34:57.176Z,19.50
2022-12-29T23:40:00.506Z,19.45
2022-12-29T23:45:03.807Z,19.67
2022-12-29T23:50:10.322Z,19.60
2022-12-29T23:55:13.729Z,20.67
